createdAt,value
2022-08-21T00:01:43.951Z,100.00
2022-08-21T00:04:13.641Z,100.00
2022-08-21T00:06:42.889Z,100.00
2022-08-21T00:09:10.225Z,100.00
2022-08-21T00:11:39.248Z,100.00
2022-08-21T00:14:08.245Z,100.00
2022-08-21T00:16:35.076Z,100.00
2022-08-21T00:19:01.784Z,100.00
2022-08-21T00:21:28.791Z,100.00
2022-08-21T00:23:55.803Z,100.00
2022-08-21T00:26:22.820Z,100.00
2022-08-21T00:28:52.694Z,100.00
2022-08-21T00:31:20.321Z,100.00
2022-08-21T00:33:47.204Z,100.00
2022-08-21T00:36:13.995Z,100.00
2022-08-21T00:38:40.728Z,100.00
2022-08-21T00:41:35.807Z,100.00
2022-08-21T00:43:57.153Z,100.00
2022-08-21T00:46:28.332Z,100.00
2022-08-21T00:48:58.810Z,100.00
2022-08-21T00:51:38.266Z,100.00
2022-08-21T00:54:11.640Z,100.00
2022-08-21T00:56:49.035Z,100.00
2022-08-21T00:59:17.964Z,100.00
2022-08-21T01:01:45.166Z,100.00
2022-08-21T01:04:13.002Z,100.00
2022-08-21T01:06:40.343Z,100.00
2022-08-21T01:09:07.275Z,100.00
2022-08-21T01:11:34.022Z,100.00
2022-08-21T01:14:01.068Z,100.00
2022-08-21T01:16:28.062Z,100.00
2022-08-21T01:18:54.776Z,100.00
2022-08-21T01:21:27.948Z,100.00
2022-08-21T01:23:57.832Z,100.00
2022-08-21T01:26:31.175Z,100.00
2022-08-21T01:29:07.134Z,100.00
2022-08-21T01:31:34.449Z,100.00
2022-08-21T01:34:01.349Z,100.00
2022-08-21T01:36:28.715Z,100.00
2022-08-21T01:38:55.850Z,100.00
2022-08-21T01:41:22.907Z,100.00
2022-08-21T01:43:50.394Z,100.00
2022-08-21T01:46:17.989Z,100.00
2022-08-21T01:48:44.912Z,100.00
2022-08-21T01:51:11.727Z,100.00
2022-08-21T01:53:39.663Z,100.00
2022-08-21T01:56:12.582Z,100.00
2022-08-21T01:58:42.701Z,100.00
2022-08-21T02:01:10.382Z,100.00
2022-08-21T02:03:38.105Z,100.00
2022-08-21T02:06:06.450Z,100.00
2022-08-21T02:08:33.630Z,100.00
2022-08-21T02:11:01.272Z,100.00
2022-08-21T02:13:27.924Z,100.00
2022-08-21T02:15:54.892Z,100.00
2022-08-21T02:18:21.548Z,100.00
2022-08-21T02:20:55.963Z,100.00
2022-08-21T02:23:26.937Z,100.00
2022-08-21T02:26:06.030Z,100.00
2022-08-21T02:28:33.253Z,100.00
2022-08-21T02:31:00.728Z,100.00
2022-08-21T02:33:28.018Z,100.00
2022-08-21T02:35:55.582Z,100.00
2022-08-21T02:38:26.306Z,100.00
2022-08-21T02:40:53.752Z,100.00
2022-08-21T02:43:23.035Z,100.00
2022-08-21T02:45:50.765Z,100.00
2022-08-21T02:48:20.713Z,100.00
2022-08-21T02:50:52.165Z,100.00
2022-08-21T02:53:20.006Z,100.00
2022-08-21T02:55:48.524Z,100.00
2022-08-21T02:58:18.711Z,100.00
2022-08-21T03:00:46.772Z,100.00
2022-08-21T03:03:15.724Z,100.00
2022-08-21T03:05:44.188Z,100.00
2022-08-21T03:08:14.504Z,100.00
2022-08-21T03:10:45.609Z,100.00
2022-08-21T03:13:13.243Z,100.00
2022-08-21T03:15:41.170Z,100.00
2022-08-21T03:18:09.661Z,100.00
2022-08-21T03:20:37.285Z,100.00
2022-08-21T03:23:07.695Z,100.00
2022-08-21T03:25:41.156Z,100.00
2022-08-21T03:28:20.869Z,100.00
2022-08-21T03:30:49.966Z,100.00
2022-08-21T03:33:20.577Z,100.00
2022-08-21T03:35:59.372Z,100.00
2022-08-21T03:38:27.628Z,100.00
2022-08-21T03:40:54.923Z,100.00
2022-08-21T03:43:21.950Z,100.00
2022-08-21T03:45:49.074Z,100.00
2022-08-21T03:48:16.416Z,100.00
2022-08-21T03:50:45.936Z,100.00
2022-08-21T03:53:16.454Z,100.00
2022-08-21T03:55:47.799Z,100.00
2022-08-21T03:58:20.934Z,100.00
2022-08-21T04:00:51.626Z,100.00
2022-08-21T04:03:19.799Z,100.00
2022-08-21T04:05:46.998Z,100.00
2022-08-21T04:08:15.588Z,100.00
2022-08-21T04:10:45.029Z,100.00
2022-08-21T04:13:12.145Z,100.00
2022-08-21T04:15:39.373Z,100.00
2022-08-21T04:18:06.799Z,100.00
2022-08-21T04:20:34.534Z,100.00
2022-08-21T04:23:02.074Z,100.00
2022-08-21T04:25:29.885Z,100.00
2022-08-21T04:27:57.183Z,100.00
2022-08-21T04:30:28.547Z,100.00
2022-08-21T04:32:57.172Z,100.00
2022-08-21T04:35:25.700Z,100.00
2022-08-21T04:37:52.642Z,100.00
2022-08-21T04:40:21.462Z,100.00
2022-08-21T04:42:54.716Z,100.00
2022-08-21T04:45:26.589Z,100.00
2022-08-21T04:47:55.797Z,100.00
2022-08-21T04:50:28.550Z,100.00
2022-08-21T04:53:06.646Z,100.00
2022-08-21T04:55:33.800Z,100.00
2022-08-21T04:58:01.525Z,100.00
2022-08-21T05:00:31.766Z,100.00
2022-08-21T05:03:02.171Z,100.00
2022-08-21T05:05:30.302Z,100.00
2022-08-21T05:08:00.430Z,100.00
2022-08-21T05:10:27.522Z,100.00
2022-08-21T05:12:55.232Z,100.00
2022-08-21T05:15:23.383Z,100.00
2022-08-21T05:17:55.425Z,100.00
2022-08-21T05:20:27.365Z,100.00
2022-08-21T05:22:54.065Z,100.00
2022-08-21T05:25:22.339Z,100.00
2022-08-21T05:27:52.179Z,100.00
2022-08-21T05:30:20.733Z,100.00
2022-08-21T05:32:49.010Z,100.00
2022-08-21T05:35:16.158Z,100.00
2022-08-21T05:37:42.898Z,100.00
2022-08-21T05:40:21.408Z,100.00
2022-08-21T05:42:55.572Z,100.00
2022-08-21T05:45:42.995Z,100.00
2022-08-21T05:48:37.525Z,100.00
2022-08-21T05:51:14.642Z,100.00
2022-08-21T05:53:43.507Z,100.00
2022-08-21T05:56:11.647Z,100.00
2022-08-21T05:58:39.042Z,100.00
2022-08-21T06:01:06.489Z,100.00
2022-08-21T06:03:36.600Z,100.00
2022-08-21T06:06:04.275Z,100.00
2022-08-21T06:08:31.225Z,100.00
2022-08-21T06:11:01.045Z,100.00
2022-08-21T06:13:28.194Z,100.00
2022-08-21T06:16:09.730Z,100.00
2022-08-21T06:18:38.009Z,100.00
2022-08-21T06:21:05.246Z,100.00
2022-08-21T06:23:33.497Z,100.00
2022-08-21T06:26:01.665Z,100.00
2022-08-21T06:28:28.899Z,100.00
2022-08-21T06:30:56.136Z,100.00
2022-08-21T06:33:23.210Z,100.00
2022-08-21T06:35:50.471Z,100.00
2022-08-21T06:38:17.929Z,100.00
2022-08-21T06:40:47.026Z,100.00
2022-08-21T06:43:17.193Z,100.00
2022-08-21T06:45:44.652Z,100.00
2022-08-21T06:48:15.613Z,100.00
2022-08-21T06:50:45.195Z,100.00
2022-08-21T06:53:14.721Z,100.00
2022-08-21T06:55:43.499Z,100.00
2022-08-21T06:58:11.578Z,100.00
2022-08-21T07:00:44.671Z,100.00
2022-08-21T07:03:20.374Z,100.00
2022-08-21T07:05:47.133Z,100.00
2022-08-21T07:08:14.176Z,100.00
2022-08-21T07:10:41.086Z,100.00
2022-08-21T07:13:08.124Z,100.00
2022-08-21T07:15:35.317Z,100.00
2022-08-21T07:18:02.623Z,100.00
2022-08-21T07:20:30.370Z,100.00
2022-08-21T07:23:01.818Z,100.00
2022-08-21T07:25:29.044Z,100.00
2022-08-21T07:27:56.323Z,100.00
2022-08-21T07:30:23.831Z,100.00
2022-08-21T07:32:51.128Z,100.00
2022-08-21T07:35:19.879Z,100.00
2022-08-21T07:37:47.247Z,100.00
2022-08-21T07:40:15.828Z,100.00
2022-08-21T07:42:44.828Z,100.00
2022-08-21T07:45:12.887Z,100.00
2022-08-21T07:47:42.397Z,100.00
2022-08-21T07:50:12.214Z,100.00
2022-08-21T07:52:40.238Z,98.63
2022-08-21T07:55:08.298Z,100.00
2022-08-21T07:57:35.002Z,100.00
2022-08-21T08:00:02.273Z,100.00
2022-08-21T08:02:39.585Z,98.82
2022-08-21T08:05:10.517Z,89.56
2022-08-21T08:07:37.696Z,93.73
2022-08-21T08:10:08.241Z,92.21
2022-08-21T08:12:36.966Z,96.51
2022-08-21T08:15:06.076Z,95.75
2022-08-21T08:17:33.740Z,93.90
2022-08-21T08:20:04.643Z,93.68
2022-08-21T08:22:31.259Z,94.86
2022-08-21T08:24:58.078Z,91.49
2022-08-21T08:27:24.908Z,92.73
2022-08-21T08:29:52.762Z,90.27
2022-08-21T08:32:21.325Z,93.57
2022-08-21T08:34:50.193Z,87.24
2022-08-21T08:37:17.424Z,90.27
2022-08-21T08:39:44.878Z,89.23
2022-08-21T08:42:32.866Z,84.98
2022-08-21T08:45:05.423Z,84.69
2022-08-21T08:47:37.225Z,82.00
2022-08-21T08:50:13.607Z,83.39
2022-08-21T08:52:55.220Z,83.20
2022-08-21T08:55:33.515Z,84.64
2022-08-21T08:58:01.492Z,84.28
2022-08-21T09:00:28.774Z,78.74
2022-08-21T09:02:58.469Z,78.16
2022-08-21T09:05:43.890Z,78.69
2022-08-21T09:08:22.786Z,76.88
2022-08-21T09:11:04.104Z,68.50
2022-08-21T09:14:12.438Z,64.30
2022-08-21T09:17:09.961Z,76.91
2022-08-21T09:19:47.390Z,68.76
2022-08-21T09:22:31.025Z,69.19
2022-08-21T09:25:22.055Z,72.22
2022-08-21T09:27:51.980Z,66.02
2022-08-21T09:30:20.964Z,71.09
2022-08-21T09:32:47.963Z,61.91
2022-08-21T09:35:19.628Z,66.28
2022-08-21T09:38:03.813Z,69.28
2022-08-21T09:40:37.072Z,68.08
2022-08-21T09:43:22.441Z,70.67
2022-08-21T09:46:01.748Z,77.33
2022-08-21T09:48:32.765Z,78.93
2022-08-21T09:51:13.506Z,81.62
2022-08-21T09:53:50.348Z,83.40
2022-08-21T09:56:46.284Z,84.54
2022-08-21T09:59:37.196Z,85.71
2022-08-21T10:05:03.289Z,71.53
2022-08-21T10:07:32.766Z,72.05
2022-08-21T10:10:09.998Z,68.86
2022-08-21T10:12:36.863Z,63.53
2022-08-21T10:15:30.217Z,62.37
2022-08-21T10:18:15.226Z,61.07
2022-08-21T10:20:52.462Z,58.26
2022-08-21T10:23:29.778Z,57.73
2022-08-21T10:26:14.285Z,60.79
2022-08-21T10:28:55.009Z,73.38
2022-08-21T10:31:46.805Z,71.35
2022-08-21T10:34:43.975Z,77.68
2022-08-21T10:37:33.930Z,82.18
2022-08-21T10:40:13.266Z,84.79
2022-08-21T10:43:21.807Z,87.06
2022-08-21T10:46:10.425Z,82.80
2022-08-21T10:48:50.317Z,79.39
2022-08-21T10:51:33.304Z,82.10
2022-08-21T10:54:24.871Z,69.71
2022-08-21T10:57:00.047Z,58.13
2022-08-21T10:59:58.569Z,59.05
2022-08-21T11:02:34.388Z,48.76
2022-08-21T11:05:13.307Z,52.14
2022-08-21T11:07:48.374Z,47.97
2022-08-21T11:10:22.611Z,52.10
2022-08-21T11:13:00.614Z,55.95
2022-08-21T11:15:36.174Z,53.70
2022-08-21T11:18:32.242Z,56.65
2022-08-21T11:21:07.987Z,63.94
2022-08-21T11:23:55.832Z,65.65
2022-08-21T11:26:44.474Z,64.67
2022-08-21T11:29:24.882Z,56.03
2022-08-21T11:32:04.541Z,49.41
2022-08-21T11:35:03.246Z,45.10
2022-08-21T11:37:48.773Z,45.50
2022-08-21T11:40:37.645Z,43.89
2022-08-21T11:43:18.300Z,42.02
2022-08-21T11:45:48.229Z,40.61
2022-08-21T11:48:27.318Z,37.46
2022-08-21T11:50:56.554Z,37.95
2022-08-21T11:53:30.048Z,37.08
2022-08-21T11:56:00.953Z,37.58
2022-08-21T11:58:42.985Z,34.87
2022-08-21T12:01:21.032Z,36.95
2022-08-21T12:04:02.859Z,34.59
2022-08-21T12:06:33.299Z,34.80
2022-08-21T12:09:29.667Z,31.58
2022-08-21T12:12:31.107Z,31.43
2022-08-21T12:15:06.939Z,35.68
2022-08-21T12:17:39.414Z,33.58
2022-08-21T12:20:24.109Z,34.48
2022-08-21T12:23:03.772Z,33.95
2022-08-21T12:26:09.416Z,32.19
2022-08-21T12:28:36.570Z,35.10
2022-08-21T12:31:03.478Z,33.85
2022-08-21T12:33:41.984Z,28.56
2022-08-21T12:36:15.947Z,31.78
2022-08-21T12:39:07.603Z,33.82
2022-08-21T12:41:42.584Z,33.40
2022-08-21T12:44:13.655Z,32.70
2022-08-21T12:46:57.159Z,33.15
2022-08-21T12:49:46.884Z,32.77
2022-08-21T12:52:30.619Z,30.26
2022-08-21T12:54:57.663Z,29.65
2022-08-21T12:57:28.587Z,32.13
2022-08-21T13:00:01.674Z,34.41
2022-08-21T13:02:36.380Z,39.45
2022-08-21T13:05:06.700Z,40.38
2022-08-21T13:07:36.903Z,38.44
2022-08-21T13:10:22.689Z,34.25
2022-08-21T13:12:50.076Z,30.89
2022-08-21T13:15:26.159Z,32.75
2022-08-21T13:18:04.411Z,33.24
2022-08-21T13:20:43.905Z,32.78
2022-08-21T13:23:21.869Z,32.84
2022-08-21T13:25:48.938Z,31.01
2022-08-21T13:28:16.925Z,29.09
2022-08-21T13:30:46.227Z,28.30
2022-08-21T13:33:16.640Z,30.99
2022-08-21T13:36:05.082Z,29.92
2022-08-21T13:38:35.756Z,31.63
2022-08-21T13:41:07.164Z,34.66
2022-08-21T13:43:40.027Z,37.30
2022-08-21T13:46:14.558Z,33.47
2022-08-21T13:48:43.164Z,29.47
2022-08-21T13:51:11.353Z,31.86
2022-08-21T13:53:53.473Z,37.01
2022-08-21T13:56:33.853Z,38.29
2022-08-21T13:59:02.446Z,37.96
2022-08-21T14:02:17.455Z,39.64
2022-08-21T14:05:03.266Z,43.01
2022-08-21T14:07:37.649Z,44.45
2022-08-21T14:10:18.921Z,45.30
2022-08-21T14:12:48.977Z,49.35
2022-08-21T14:15:19.817Z,47.30
2022-08-21T14:17:47.104Z,50.06
2022-08-21T14:20:30.031Z,41.32
2022-08-21T14:22:57.650Z,38.82
2022-08-21T14:25:25.743Z,37.66
2022-08-21T14:28:10.009Z,35.08
2022-08-21T14:30:40.583Z,32.22
2022-08-21T14:33:13.453Z,31.60
2022-08-21T14:35:41.213Z,29.56
2022-08-21T14:38:16.364Z,29.18
2022-08-21T14:40:45.275Z,29.29
2022-08-21T14:43:12.192Z,29.70
2022-08-21T14:45:41.851Z,30.53
2022-08-21T14:48:08.907Z,28.17
2022-08-21T14:50:36.309Z,28.01
2022-08-21T14:53:11.198Z,29.38
2022-08-21T14:55:58.267Z,28.24
2022-08-21T14:58:26.784Z,28.57
2022-08-21T15:00:55.770Z,29.30
2022-08-21T15:03:25.634Z,29.23
2022-08-21T15:05:52.887Z,28.62
2022-08-21T15:08:19.885Z,28.67
2022-08-21T15:11:10.697Z,28.52
2022-08-21T15:13:34.867Z,27.84
2022-08-21T15:16:01.703Z,28.74
2022-08-21T15:18:30.886Z,29.87
2022-08-21T15:20:58.746Z,30.11
2022-08-21T15:23:25.707Z,28.26
2022-08-21T15:25:53.606Z,28.22
2022-08-21T15:28:21.590Z,27.69
2022-08-21T15:30:49.303Z,27.02
2022-08-21T15:33:16.136Z,26.28
2022-08-21T15:35:42.881Z,28.12
2022-08-21T15:38:11.176Z,26.57
2022-08-21T15:40:42.609Z,27.75
2022-08-21T15:43:30.457Z,27.46
2022-08-21T15:46:00.756Z,28.24
2022-08-21T15:48:29.658Z,26.70
2022-08-21T15:50:56.660Z,26.61
2022-08-21T15:53:23.934Z,26.39
2022-08-21T15:55:50.714Z,27.30
2022-08-21T15:58:20.872Z,25.84
2022-08-21T16:00:48.403Z,27.50
2022-08-21T16:03:17.892Z,27.86
2022-08-21T16:05:46.417Z,27.97
2022-08-21T16:08:13.520Z,28.90
2022-08-21T16:10:40.968Z,28.51
2022-08-21T16:13:15.453Z,28.02
2022-08-21T16:15:42.571Z,28.84
2022-08-21T16:18:11.099Z,31.84
2022-08-21T16:20:38.266Z,34.33
2022-08-21T16:23:05.347Z,36.22
2022-08-21T16:25:37.151Z,38.46
2022-08-21T16:28:10.360Z,41.04
2022-08-21T16:30:40.649Z,41.53
2022-08-21T16:33:11.800Z,41.03
2022-08-21T16:35:38.539Z,43.33
2022-08-21T16:38:05.717Z,45.75
2022-08-21T16:40:33.954Z,46.28
2022-08-21T16:43:01.101Z,46.09
2022-08-21T16:45:33.044Z,49.60
2022-08-21T16:48:01.254Z,49.97
2022-08-21T16:50:28.248Z,51.00
2022-08-21T16:52:57.985Z,50.59
2022-08-21T16:55:25.193Z,50.54
2022-08-21T16:57:54.591Z,50.58
2022-08-21T17:00:21.805Z,54.45
2022-08-21T17:02:54.225Z,56.32
2022-08-21T17:05:20.975Z,57.80
2022-08-21T17:07:48.180Z,54.00
2022-08-21T17:10:17.155Z,54.02
2022-08-21T17:12:48.149Z,56.96
2022-08-21T17:15:23.707Z,57.70
2022-08-21T17:17:51.557Z,55.34
2022-08-21T17:20:19.449Z,58.21
2022-08-21T17:22:46.604Z,58.66
2022-08-21T17:25:13.802Z,57.66
2022-08-21T17:27:41.322Z,60.72
2022-08-21T17:30:08.873Z,58.37
2022-08-21T17:32:38.132Z,65.22
2022-08-21T17:35:06.080Z,67.60
2022-08-21T17:37:33.905Z,68.90
2022-08-21T17:40:00.987Z,67.89
2022-08-21T17:42:30.425Z,71.09
2022-08-21T17:44:57.944Z,74.32
2022-08-21T17:47:25.851Z,77.80
2022-08-21T17:49:53.579Z,85.00
2022-08-21T17:52:21.522Z,91.04
2022-08-21T17:54:48.478Z,97.32
2022-08-21T17:57:20.669Z,99.46
2022-08-21T17:59:54.043Z,100.00
2022-08-21T18:02:23.790Z,100.00
2022-08-21T18:04:55.660Z,100.00
2022-08-21T18:07:25.275Z,100.00
2022-08-21T18:10:01.391Z,100.00
2022-08-21T18:12:29.776Z,100.00
2022-08-21T18:14:56.995Z,100.00
2022-08-21T18:17:28.580Z,100.00
2022-08-21T18:19:56.302Z,100.00
2022-08-21T18:22:23.316Z,100.00
2022-08-21T18:24:50.268Z,100.00
2022-08-21T18:27:18.146Z,100.00
2022-08-21T18:29:47.326Z,100.00
2022-08-21T18:32:31.168Z,100.00
2022-08-21T18:35:02.084Z,100.00
2022-08-21T18:37:29.726Z,100.00
2022-08-21T18:39:56.727Z,100.00
2022-08-21T18:42:28.779Z,100.00
2022-08-21T18:45:01.634Z,100.00
2022-08-21T18:47:37.461Z,100.00
2022-08-21T18:50:05.923Z,100.00
2022-08-21T18:52:39.862Z,100.00
2022-08-21T18:55:21.583Z,100.00
2022-08-21T18:57:48.566Z,100.00
2022-08-21T19:00:24.617Z,100.00
2022-08-21T19:02:52.862Z,100.00
2022-08-21T19:05:21.510Z,100.00
2022-08-21T19:07:51.449Z,100.00
2022-08-21T19:10:27.780Z,100.00
2022-08-21T19:12:58.982Z,100.00
2022-08-21T19:15:25.754Z,100.00
2022-08-21T19:17:54.512Z,100.00
2022-08-21T19:20:27.581Z,100.00
2022-08-21T19:22:56.480Z,100.00
2022-08-21T19:25:33.239Z,100.00
2022-08-21T19:28:10.713Z,100.00
2022-08-21T19:30:41.643Z,100.00
2022-08-21T19:33:22.253Z,100.00
2022-08-21T19:35:52.533Z,100.00
2022-08-21T19:38:19.764Z,100.00
2022-08-21T19:40:46.929Z,100.00
2022-08-21T19:43:13.966Z,100.00
2022-08-21T19:45:42.525Z,100.00
2022-08-21T19:48:09.559Z,100.00
2022-08-21T19:50:37.183Z,100.00
2022-08-21T19:53:05.341Z,100.00
2022-08-21T19:55:43.031Z,100.00
2022-08-21T19:58:24.379Z,100.00
2022-08-21T20:00:51.024Z,100.00
2022-08-21T20:03:18.228Z,100.00
2022-08-21T20:05:48.152Z,100.00
2022-08-21T20:08:20.535Z,100.00
2022-08-21T20:10:49.983Z,100.00
2022-08-21T20:16:12.420Z,100.00
2022-08-21T20:18:40.571Z,100.00
2022-08-21T20:21:11.200Z,100.00
2022-08-21T20:23:38.150Z,100.00
2022-08-21T20:26:24.949Z,100.00
2022-08-21T20:28:52.292Z,100.00
2022-08-21T20:31:22.704Z,100.00
2022-08-21T20:33:50.688Z,100.00
2022-08-21T20:36:18.880Z,100.00
2022-08-21T20:38:48.237Z,100.00
2022-08-21T20:41:21.164Z,100.00
2022-08-21T20:43:58.086Z,100.00
2022-08-21T20:46:27.943Z,100.00
2022-08-21T20:48:55.062Z,100.00
2022-08-21T20:51:31.634Z,100.00
2022-08-21T20:54:04.256Z,100.00
2022-08-21T20:56:48.876Z,100.00
2022-08-21T20:59:34.197Z,100.00
2022-08-21T21:02:16.423Z,100.00
2022-08-21T21:04:47.165Z,100.00
2022-08-21T21:07:21.215Z,100.00
2022-08-21T21:09:50.874Z,100.00
2022-08-21T21:12:28.277Z,100.00
2022-08-21T21:14:59.041Z,100.00
2022-08-21T21:17:41.026Z,100.00
2022-08-21T21:20:15.788Z,100.00
2022-08-21T21:22:49.736Z,100.00
2022-08-21T21:25:53.814Z,100.00
2022-08-21T21:28:48.592Z,100.00
2022-08-21T21:31:17.274Z,100.00
2022-08-21T21:33:46.897Z,100.00
2022-08-21T21:36:43.804Z,100.00
2022-08-21T21:39:36.177Z,100.00
2022-08-21T21:42:16.101Z,100.00
2022-08-21T21:44:58.208Z,100.00
2022-08-21T21:47:25.174Z,100.00
2022-08-21T21:50:03.932Z,100.00
2022-08-21T21:52:42.641Z,100.00
2022-08-21T21:55:12.359Z,100.00
2022-08-21T21:57:42.321Z,100.00
2022-08-21T22:00:26.789Z,100.00
2022-08-21T22:03:08.606Z,100.00
2022-08-21T22:05:39.819Z,100.00
2022-08-21T22:08:15.795Z,100.00
2022-08-21T22:11:08.795Z,100.00
2022-08-21T22:14:04.875Z,100.00
2022-08-21T22:16:33.352Z,100.00
2022-08-21T22:19:09.494Z,100.00
2022-08-21T22:21:47.497Z,100.00
2022-08-21T22:24:27.711Z,100.00
2022-08-21T22:27:02.237Z,100.00
2022-08-21T22:29:54.298Z,100.00
2022-08-21T22:32:25.714Z,100.00
2022-08-21T22:35:12.706Z,100.00
2022-08-21T22:37:58.634Z,100.00
2022-08-21T22:40:35.403Z,100.00
2022-08-21T22:43:03.835Z,100.00
2022-08-21T22:45:57.359Z,100.00
2022-08-21T22:48:31.960Z,100.00
2022-08-21T22:51:12.596Z,100.00
2022-08-21T22:53:43.991Z,100.00
2022-08-21T22:56:31.819Z,100.00
2022-08-21T22:59:04.851Z,100.00
2022-08-21T23:01:37.539Z,100.00
2022-08-21T23:04:20.564Z,100.00
2022-08-21T23:06:52.859Z,100.00
2022-08-21T23:09:21.473Z,100.00
2022-08-21T23:11:50.880Z,100.00
2022-08-21T23:14:18.378Z,100.00
2022-08-21T23:16:55.488Z,100.00
2022-08-21T23:19:40.536Z,100.00
2022-08-21T23:22:10.004Z,100.00
2022-08-21T23:25:12.841Z,100.00
2022-08-21T23:28:09.312Z,100.00
2022-08-21T23:31:02.810Z,100.00
2022-08-21T23:33:38.714Z,100.00
2022-08-21T23:36:46.602Z,100.00
2022-08-21T23:39:28.498Z,100.00
2022-08-21T23:41:58.617Z,100.00
2022-08-21T23:44:46.739Z,100.00
2022-08-21T23:47:40.514Z,100.00
2022-08-21T23:50:35.736Z,100.00
2022-08-21T23:53:09.138Z,100.00
2022-08-21T23:55:35.881Z,100.00
2022-08-21T23:58:11.772Z,100.00
